Time;durP1;ratioP1;P1;durP2;ratioP2;P2;SDS_P1;SDS_P2;PMS_P1;PMS_P2;Temp;Humidity;BMP_temperature;BMP_pressure;BME280_temperature;BME280_humidity;BME280_pressure;Samples;Min_cycle;Max_cycle;Signal;HPM_P1;HPM_P2
2021/11/25 00:04:37;;;;;;;1.97;1.73;;;17.20;55.30;;;;;;10438593;28;20687;-70
2021/11/25 00:10:01;;;;;;;2.23;1.73;;;17.10;55.40;;;;;;10452118;28;20221;-70
2021/11/25 00:15:25;;;;;;;2.20;1.60;;;17.10;55.20;;;;;;10458901;28;20211;-72
2021/11/25 00:20:47;;;;;;;2.90;1.90;;;17.20;55.00;;;;;;10459184;28;20200;-70
2021/11/25 00:26:11;;;;;;;2.40;1.77;;;17.10;54.80;;;;;;10459243;28;20292;-70
2021/11/25 00:31:34;;;;;;;2.17;1.83;;;17.20;54.90;;;;;;10458407;28;20213;-70
2021/11/25 00:36:56;;;;;;;2.13;1.80;;;17.20;54.90;;;;;;10442848;28;20252;-70
2021/11/25 00:42:20;;;;;;;2.43;2.07;;;17.20;54.80;;;;;;10418044;28;20190;-70
2021/11/25 00:47:42;;;;;;;2.63;1.90;;;17.20;54.80;;;;;;10442901;28;20718;-70
2021/11/25 00:53:04;;;;;;;1.50;1.40;;;17.10;54.80;;;;;;10458169;28;20221;-70
2021/11/25 00:58:28;;;;;;;2.13;1.87;;;17.10;55.10;;;;;;10457655;28;20217;-71
2021/11/25 01:03:50;;;;;;;2.13;1.87;;;17.10;54.90;;;;;;10446615;28;21140;-71
2021/11/25 01:09:12;;;;;;;2.10;1.70;;;17.20;54.80;;;;;;10425588;28;20225;-72
2021/11/25 01:14:36;;;;;;;1.87;1.70;;;17.10;55.00;;;;;;10415773;28;20201;-70
2021/11/25 01:19:59;;;;;;;2.20;1.57;;;17.10;55.00;;;;;;10418383;28;20221;-72
2021/11/25 01:25:21;;;;;;;3.73;2.30;;;17.10;54.80;;;;;;10416712;28;20202;-69
2021/11/25 01:30:46;;;;;;;1.70;1.60;;;17.10;54.80;;;;;;10416197;28;20612;-69
2021/11/25 01:36:09;;;;;;;2.03;1.63;;;17.10;54.90;;;;;;10415577;28;20229;-70
2021/11/25 01:41:31;;;;;;;2.20;1.80;;;17.10;55.00;;;;;;10417111;28;20194;-69
2021/11/25 01:46:54;;;;;;;1.70;1.60;;;17.10;54.80;;;;;;10434065;28;20236;-70
2021/11/25 01:52:16;;;;;;;2.10;1.67;;;17.10;54.80;;;;;;10456432;28;20224;-70
2021/11/25 01:57:39;;;;;;;1.77;1.60;;;17.10;54.80;;;;;;10455860;28;20591;-70
2021/11/25 02:03:04;;;;;;;1.50;1.40;;;17.10;54.90;;;;;;10441090;28;20201;-71
2021/11/25 02:08:27;;;;;;;1.70;1.60;;;17.10;54.80;;;;;;10423086;28;20222;-70
2021/11/25 02:13:49;;;;;;;2.07;1.80;;;17.10;54.80;;;;;;10414425;28;20574;-70
2021/11/25 02:19:14;;;;;;;1.90;1.60;;;17.10;54.80;;;;;;10414110;28;20228;-70
2021/11/25 02:24:37;;;;;;;3.67;1.80;;;17.10;55.00;;;;;;10414777;28;20205;-70
2021/11/25 02:29:59;;;;;;;2.50;1.60;;;17.10;54.90;;;;;;10412988;28;20229;-70
2021/11/25 02:35:25;;;;;;;2.20;1.50;;;17.10;54.90;;;;;;10413103;28;20573;-71
2021/11/25 02:40:50;;;;;;;2.10;1.73;;;17.10;54.90;;;;;;10413324;28;20198;-70
2021/11/25 02:46:14;;;;;;;1.90;1.63;;;17.00;55.00;;;;;;10425673;28;20604;-71
2021/11/25 02:51:36;;;;;;;2.53;1.50;;;17.00;55.00;;;;;;10452470;28;20695;-70
2021/11/25 02:56:59;;;;;;;2.07;1.73;;;17.10;55.10;;;;;;10453078;28;20220;-70
2021/11/25 03:02:21;;;;;;;1.60;1.37;;;17.10;54.40;;;;;;10451128;28;20197;-70
2021/11/25 03:07:43;;;;;;;2.37;1.90;;;17.10;54.50;;;;;;10443767;28;20232;-71
2021/11/25 03:13:08;;;;;;;1.73;1.47;;;17.10;54.50;;;;;;10449692;28;20240;-71
2021/11/25 03:18:31;;;;;;;1.93;1.67;;;17.10;54.50;;;;;;10452258;28;20217;-70
2021/11/25 03:23:54;;;;;;;2.63;1.50;;;17.10;54.50;;;;;;10452482;28;20688;-70
2021/11/25 03:29:18;;;;;;;1.70;1.60;;;17.00;54.50;;;;;;10424151;28;20285;-73
2021/11/25 03:34:40;;;;;;;1.77;1.37;;;17.00;54.60;;;;;;10411020;28;20210;-70
2021/11/25 03:40:03;;;;;;;2.47;1.67;;;17.00;54.60;;;;;;10410437;28;20573;-70
2021/11/25 03:45:26;;;;;;;1.60;1.50;;;17.00;54.40;;;;;;10417457;28;20197;-70
2021/11/25 03:50:48;;;;;;;1.47;1.30;;;17.10;54.50;;;;;;10453541;28;20321;-71
2021/11/25 03:56:11;;;;;;;2.33;1.67;;;17.00;54.50;;;;;;10419245;28;20217;-71
2021/11/25 04:01:35;;;;;;;1.53;1.40;;;17.00;54.50;;;;;;10410064;28;20194;-70
2021/11/25 04:06:57;;;;;;;1.80;1.40;;;17.00;54.20;;;;;;10410832;28;20218;-70
2021/11/25 04:12:19;;;;;;;1.73;1.40;;;17.00;54.10;;;;;;10410813;28;20266;-71
2021/11/25 04:17:43;;;;;;;1.87;1.27;;;17.00;54.20;;;;;;10410341;28;20697;-72
2021/11/25 04:23:06;;;;;;;2.37;1.60;;;17.00;54.30;;;;;;10410495;28;20194;-69
2021/11/25 04:28:28;;;;;;;1.87;1.50;;;17.00;54.00;;;;;;10410154;28;20712;-70
2021/11/25 04:39:32;;;;;;;1.50;1.40;;;17.00;54.10;;;;;;10410626;28;20225;-70
2021/11/25 04:44:54;;;;;;;1.70;1.27;;;17.00;53.80;;;;;;10420421;28;20213;-70
2021/11/25 04:50:17;;;;;;;1.83;1.43;;;17.10;53.80;;;;;;10411028;28;20210;-70
2021/11/25 04:55:41;;;;;;;1.40;1.30;;;17.20;53.80;;;;;;10413344;28;20204;-72
2021/11/25 05:01:04;;;;;;;2.13;1.43;;;17.20;53.50;;;;;;10416444;28;20208;-70
2021/11/25 05:06:27;;;;;;;2.07;1.37;;;17.20;53.30;;;;;;10427944;28;20263;-71
2021/11/25 05:11:49;;;;;;;1.60;1.50;;;17.30;53.30;;;;;;10448860;28;20229;-71
2021/11/25 05:17:11;;;;;;;3.30;1.60;;;17.20;53.30;;;;;;10448817;28;20588;-71
2021/11/25 05:22:36;;;;;;;1.90;1.43;;;17.10;53.40;;;;;;10457374;28;20192;-70
2021/11/25 05:27:59;;;;;;;3.57;2.60;;;17.10;53.50;;;;;;10456744;28;20220;-71
2021/11/25 05:33:22;;;;;;;2.90;2.00;;;17.20;53.40;;;;;;10454609;28;20217;-70
2021/11/25 05:38:45;;;;;;;2.10;1.70;;;17.30;53.10;;;;;;10479964;22;20224;-65
2021/11/25 05:44:09;;;;;;;3.10;2.00;;;17.40;53.70;;;;;;10481276;28;20200;-65
2021/11/25 05:49:31;;;;;;;2.67;1.80;;;17.40;52.90;;;;;;10498672;28;20224;-67
2021/11/25 05:54:55;;;;;;;2.23;1.90;;;17.30;53.20;;;;;;10497076;28;20283;-66
2021/11/25 06:00:17;;;;;;;3.17;2.17;;;17.40;53.40;;;;;;10496758;28;20715;-65
2021/11/25 06:05:39;;;;;;;6.97;4.47;;;17.40;53.00;;;;;;10495324;28;20196;-65
2021/11/25 06:11:04;;;;;;;4.70;3.20;;;17.30;52.50;;;;;;10496210;28;20228;-65
2021/11/25 06:16:26;;;;;;;8.73;5.60;;;17.30;52.80;;;;;;10495905;28;20196;-65
2021/11/25 06:21:48;;;;;;;7.50;6.53;;;17.30;52.90;;;;;;10478465;28;20559;-64
2021/11/25 06:27:12;;;;;;;5.80;4.40;;;17.20;53.40;;;;;;10495311;28;20231;-65
2021/11/25 06:32:34;;;;;;;4.57;3.97;;;17.20;53.70;;;;;;10507877;28;20220;-63
2021/11/25 06:37:57;;;;;;;3.67;3.07;;;17.20;53.80;;;;;;10494780;28;20235;-64
2021/11/25 06:43:20;;;;;;;3.57;3.13;;;17.20;53.90;;;;;;10516192;28;20185;-64
2021/11/25 06:48:42;;;;;;;3.40;3.07;;;17.20;54.00;;;;;;10513077;28;20222;-64
2021/11/25 06:54:04;;;;;;;3.47;2.57;;;17.10;54.00;;;;;;10489274;28;20599;-66
2021/11/25 06:59:28;;;;;;;3.60;3.23;;;17.10;54.10;;;;;;10515198;28;20655;-66
2021/11/25 07:04:50;;;;;;;4.07;3.37;;;17.10;54.10;;;;;;10501075;28;20266;-66
2021/11/25 07:10:13;;;;;;;2.97;2.67;;;17.10;54.10;;;;;;10521029;28;20538;-66
2021/11/25 07:15:37;;;;;;;3.63;3.10;;;17.20;54.20;;;;;;10486792;28;20314;-66
2021/11/25 07:20:59;;;;;;;3.93;3.30;;;17.20;53.70;;;;;;10483378;28;20218;-66
2021/11/25 07:26:21;;;;;;;5.87;2.60;;;17.30;53.20;;;;;;10497620;28;20326;-66
2021/11/25 07:31:46;;;;;;;4.07;3.00;;;17.40;53.10;;;;;;10494594;28;20227;-66
2021/11/25 07:37:08;;;;;;;2.97;2.67;;;17.40;53.00;;;;;;10461529;28;1042209;-65
2021/11/25 07:42:30;;;;;;;2.90;2.60;;;17.40;53.10;;;;;;10515091;28;20199;-66
2021/11/25 07:47:54;;;;;;;3.03;2.60;;;17.30;53.30;;;;;;10511100;28;20314;-66
2021/11/25 07:53:16;;;;;;;2.47;2.27;;;17.30;53.50;;;;;;10501710;28;20243;-66
2021/11/25 07:58:38;;;;;;;3.07;2.60;;;17.30;53.60;;;;;;10520648;28;20220;-63
2021/11/25 08:04:02;;;;;;;3.10;2.70;;;17.30;53.50;;;;;;10497421;28;20203;-65
2021/11/25 08:09:24;;;;;;;6.23;3.10;;;17.30;53.50;;;;;;10522678;28;20226;-65
2021/11/25 08:14:46;;;;;;;3.70;3.27;;;17.30;53.50;;;;;;10504418;28;20685;-65
2021/11/25 08:20:11;;;;;;;5.43;3.80;;;17.20;53.50;;;;;;10509454;28;20258;-65
2021/11/25 08:25:34;;;;;;;5.67;4.10;;;17.10;53.50;;;;;;10508022;28;20339;-64
2021/11/25 08:30:56;;;;;;;4.57;3.57;;;17.10;53.70;;;;;;10510470;28;20222;-66
2021/11/25 08:36:20;;;;;;;4.37;3.90;;;17.10;53.70;;;;;;10520602;28;20211;-66
2021/11/25 08:41:42;;;;;;;4.70;3.73;;;17.10;53.70;;;;;;10534328;28;20195;-65
2021/11/25 08:47:04;;;;;;;5.60;4.83;;;17.10;53.50;;;;;;10506217;28;20568;-66
2021/11/25 08:52:28;;;;;;;7.33;4.83;;;17.20;53.00;;;;;;10529607;28;20702;-65
2021/11/25 08:57:50;;;;;;;5.97;4.77;;;17.30;53.00;;;;;;10524004;28;20223;-66
2021/11/25 09:03:12;;;;;;;11.20;4.53;;;17.40;52.60;;;;;;10529107;28;20659;-67
2021/11/25 09:08:36;;;;;;;8.40;5.60;;;17.40;52.50;;;;;;10529791;28;20223;-66
2021/11/25 09:13:58;;;;;;;7.90;6.23;;;17.40;52.50;;;;;;10520369;28;20598;-66
2021/11/25 09:19:20;;;;;;;6.87;4.73;;;17.40;52.40;;;;;;10532387;28;20232;-65
2021/11/25 09:24:45;;;;;;;7.03;5.43;;;17.40;52.60;;;;;;10511270;28;20193;-65
2021/11/25 09:30:08;;;;;;;6.50;5.37;;;17.40;52.80;;;;;;10494147;28;20271;-65
2021/11/25 09:35:30;;;;;;;6.53;5.57;;;17.40;53.20;;;;;;10496253;28;20196;-68
2021/11/25 09:40:54;;;;;;;6.77;5.33;;;17.30;53.50;;;;;;10495585;28;20220;-68
2021/11/25 09:46:19;;;;;;;8.97;6.07;;;17.30;53.70;;;;;;10491682;28;20200;-65
2021/11/25 09:51:41;;;;;;;7.70;6.10;;;17.20;53.90;;;;;;10495575;28;20291;-66
2021/11/25 09:57:05;;;;;;;7.10;5.80;;;17.20;54.10;;;;;;10485190;28;20595;-68
2021/11/25 10:02:27;;;;;;;6.97;5.63;;;17.20;54.40;;;;;;10493310;28;20196;-64
2021/11/25 10:07:49;;;;;;;7.93;5.87;;;17.20;54.60;;;;;;10482096;28;20609;-64
2021/11/25 10:13:16;;;;;;;7.57;6.40;;;17.30;54.90;;;;;;10485466;28;20595;-64
2021/11/25 10:18:39;;;;;;;9.13;6.90;;;17.40;54.50;;;;;;10501660;28;20702;-64
2021/11/25 10:24:01;;;;;;;10.20;7.63;;;17.40;54.00;;;;;;10503257;28;20559;-65
2021/11/25 10:29:24;;;;;;;9.17;6.80;;;17.40;53.80;;;;;;10492088;28;20216;-64
2021/11/25 10:35:06;;;;;;;9.63;7.37;;;17.50;54.00;;;;;;10499574;28;20215;-64
2021/11/25 10:40:30;;;;;;;9.77;7.87;;;17.50;54.10;;;;;;10508031;28;20226;-64
2021/11/25 10:45:54;;;;;;;10.60;6.93;;;17.50;54.20;;;;;;10503854;28;20671;-64
2021/11/25 10:51:26;;;;;;;8.43;7.20;;;17.50;54.20;;;;;;10502698;28;20242;-64
2021/11/25 10:56:49;;;;;;;9.03;7.30;;;17.50;54.10;;;;;;10503562;28;20219;-64
2021/11/25 11:02:22;;;;;;;9.37;7.00;;;17.40;54.30;;;;;;10509839;28;20183;-64
2021/11/25 11:07:46;;;;;;;9.50;7.63;;;17.40;54.40;;;;;;10487497;28;20212;-64
2021/11/25 11:13:21;;;;;;;9.20;7.50;;;17.40;54.50;;;;;;10494319;28;20220;-65
2021/11/25 11:18:52;;;;;;;10.93;8.87;;;17.40;54.00;;;;;;10507463;28;20249;-65
2021/11/25 11:24:17;;;;;;;11.47;9.43;;;17.40;53.10;;;;;;10511700;28;20192;-65
2021/11/25 11:29:39;;;;;;;10.70;8.90;;;17.50;52.90;;;;;;10498227;28;20687;-66
2021/11/25 11:35:04;;;;;;;10.30;8.20;;;17.40;52.90;;;;;;10503601;28;20208;-66
2021/11/25 11:40:27;;;;;;;10.83;8.27;;;17.40;53.00;;;;;;10508193;22;20235;-63
2021/11/25 11:45:51;;;;;;;8.70;7.40;;;17.30;53.20;;;;;;10469093;28;20573;-62
2021/11/25 11:51:17;;;;;;;9.00;7.10;;;17.30;53.60;;;;;;10482508;28;20220;-64
2021/11/25 11:56:43;;;;;;;10.10;7.27;;;17.20;53.90;;;;;;10475280;28;20216;-64
2021/11/25 12:02:06;;;;;;;9.83;7.67;;;17.20;54.20;;;;;;10481247;28;20197;-63
2021/11/25 12:07:30;;;;;;;9.63;7.23;;;17.10;54.30;;;;;;10483274;28;20623;-64
2021/11/25 12:13:04;;;;;;;8.17;6.60;;;17.10;54.50;;;;;;10469491;28;20216;-63
2021/11/25 12:18:31;;;;;;;10.37;7.10;;;17.10;55.00;;;;;;10475896;28;20582;-63
2021/11/25 12:24:10;;;;;;;8.73;6.97;;;17.20;54.80;;;;;;10477250;28;20194;-63
2021/11/25 12:29:39;;;;;;;8.53;6.97;;;17.30;54.90;;;;;;10474123;28;20188;-63
2021/11/25 12:35:04;;;;;;;7.87;6.63;;;17.20;54.70;;;;;;10478333;28;20693;-64
2021/11/25 12:40:48;;;;;;;6.80;5.97;;;17.30;54.50;;;;;;10477540;28;20756;-66
2021/11/25 12:46:13;;;;;;;7.53;6.07;;;17.40;54.10;;;;;;10479334;28;20213;-65
2021/11/25 12:51:36;;;;;;;7.40;5.80;;;17.40;54.20;;;;;;10469686;28;20204;-63
2021/11/25 12:56:59;;;;;;;6.37;5.73;;;17.30;54.30;;;;;;10475621;28;20227;-64
2021/11/25 13:02:22;;;;;;;7.03;5.57;;;17.30;54.50;;;;;;10465196;28;20428;-65
2021/11/25 13:07:47;;;;;;;5.83;4.97;;;17.30;54.70;;;;;;10473848;28;20231;-65
2021/11/25 13:13:13;;;;;;;7.80;5.80;;;17.30;55.00;;;;;;10459894;28;20714;-65
2021/11/25 13:18:44;;;;;;;6.77;5.63;;;17.30;55.40;;;;;;10468846;28;20225;-65
2021/11/25 13:24:12;;;;;;;7.87;6.37;;;17.20;55.60;;;;;;10469549;28;20200;-66
2021/11/25 13:29:40;;;;;;;8.20;6.87;;;17.30;55.60;;;;;;10482730;28;20691;-65
2021/11/25 13:35:05;;;;;;;8.93;7.60;;;17.40;55.20;;;;;;10471130;28;20217;-65
2021/11/25 13:40:28;;;;;;;9.03;6.70;;;17.50;54.60;;;;;;10470624;28;20216;-66
2021/11/25 13:45:53;;;;;;;7.53;6.63;;;17.60;54.50;;;;;;10478786;28;20230;-63
2021/11/25 13:51:22;;;;;;;6.93;6.23;;;17.50;54.50;;;;;;10481005;28;20209;-65
2021/11/25 13:56:46;;;;;;;7.27;5.67;;;17.50;55.20;;;;;;10478922;28;20801;-65
2021/11/25 14:02:10;;;;;;;6.40;5.70;;;17.40;55.00;;;;;;10478928;28;20196;-65
2021/11/25 14:07:32;;;;;;;7.57;6.47;;;17.40;55.10;;;;;;10477016;28;20216;-64
2021/11/25 14:13:02;;;;;;;6.30;5.70;;;17.30;55.30;;;;;;10459082;28;20213;-64
2021/11/25 14:18:33;;;;;;;5.97;5.37;;;17.30;55.50;;;;;;10477217;28;20240;-65
2021/11/25 14:24:07;;;;;;;7.23;5.57;;;17.30;55.70;;;;;;10476387;28;20262;-65
2021/11/25 14:35:44;;;;;;;7.00;6.30;;;17.30;56.10;;;;;;10481632;28;20304;-63
2021/11/25 14:41:06;;;;;;;7.10;6.33;;;17.30;56.10;;;;;;10473160;28;20204;-65
2021/11/25 14:46:28;;;;;;;10.93;7.20;;;17.30;56.20;;;;;;10482729;28;20224;-65
2021/11/25 14:52:10;;;;;;;8.83;7.60;;;17.30;56.30;;;;;;10480708;28;20327;-65
2021/11/25 14:57:33;;;;;;;8.70;7.43;;;17.30;56.00;;;;;;10483606;28;20567;-67
2021/11/25 15:02:58;;;;;;;11.47;7.77;;;17.40;55.50;;;;;;10496487;28;20839;-67
2021/11/25 15:08:22;;;;;;;7.60;6.67;;;17.50;55.20;;;;;;10477444;28;20219;-66
2021/11/25 15:13:44;;;;;;;12.18;8.90;;;17.60;55.30;;;;;;10495155;28;20443;-67
2021/11/25 15:19:07;;;;;;;10.17;6.37;;;18.30;53.30;;;;;;10493437;28;20220;-66
2021/11/25 15:24:31;;;;;;;8.43;6.77;;;17.90;54.70;;;;;;10482096;28;20197;-67
2021/11/25 15:29:53;;;;;;;8.67;7.17;;;17.70;55.20;;;;;;10494966;28;20200;-67
2021/11/25 15:35:18;;;;;;;7.90;6.53;;;17.50;55.50;;;;;;10491873;28;20227;-66
2021/11/25 15:40:42;;;;;;;9.13;7.50;;;17.40;55.70;;;;;;10466773;28;20346;-67
2021/11/25 15:46:05;;;;;;;9.13;7.40;;;17.30;55.90;;;;;;10464118;28;20694;-67
2021/11/25 15:51:27;;;;;;;8.97;7.47;;;17.20;56.10;;;;;;10485485;28;20615;-68
2021/11/25 15:56:50;;;;;;;7.77;6.97;;;17.20;56.20;;;;;;10475174;28;20310;-64
2021/11/25 16:02:14;;;;;;;8.50;6.57;;;17.10;56.30;;;;;;10474405;28;20201;-67
2021/11/25 16:07:36;;;;;;;10.23;8.00;;;17.10;56.20;;;;;;10463216;28;20435;-66
2021/11/25 16:13:00;;;;;;;8.13;7.20;;;17.60;54.80;;;;;;10450591;28;20217;-66
2021/11/25 16:18:22;;;;;;;10.33;7.47;;;17.50;55.00;;;;;;10482878;28;20212;-67
2021/11/25 16:23:44;;;;;;;9.40;7.23;;;17.50;54.70;;;;;;10470244;28;20193;-67
2021/11/25 16:29:08;;;;;;;8.83;7.53;;;17.50;54.50;;;;;;10483633;28;20212;-66
2021/11/25 16:34:30;;;;;;;10.10;6.93;;;17.50;54.60;;;;;;10487515;28;20223;-65
2021/11/25 16:39:52;;;;;;;7.90;5.93;;;17.50;54.90;;;;;;10485731;28;20200;-67
2021/11/25 16:45:16;;;;;;;9.20;7.33;;;17.40;54.90;;;;;;10485088;28;20231;-70
2021/11/25 16:50:38;;;;;;;11.10;6.33;;;17.50;55.20;;;;;;10484892;28;20211;-68
2021/11/25 16:56:01;;;;;;;7.60;6.20;;;17.40;55.40;;;;;;10496381;28;20216;-68
2021/11/25 17:01:25;;;;;;;7.87;6.47;;;17.40;55.60;;;;;;10497985;28;20693;-68
2021/11/25 17:06:47;;;;;;;7.90;5.67;;;17.30;55.60;;;;;;10496780;28;20212;-68
2021/11/25 17:12:13;;;;;;;9.20;6.10;;;17.30;55.80;;;;;;10479289;28;20217;-68
2021/11/25 17:17:36;;;;;;;6.70;5.50;;;17.30;56.00;;;;;;10456653;28;20221;-65
2021/11/25 17:22:59;;;;;;;11.40;7.00;;;17.30;55.90;;;;;;10494182;28;20204;-68
2021/11/25 17:28:21;;;;;;;8.67;6.77;;;17.30;55.90;;;;;;10496966;28;20220;-68
2021/11/25 17:33:45;;;;;;;8.03;6.80;;;17.30;55.60;;;;;;10497180;28;20573;-68
2021/11/25 17:39:07;;;;;;;8.50;6.90;;;17.30;55.70;;;;;;10511059;22;20228;-66
2021/11/25 17:44:29;;;;;;;10.03;7.10;;;17.30;55.70;;;;;;10474383;28;20205;-64
2021/11/25 17:49:53;;;;;;;9.70;6.67;;;17.40;55.60;;;;;;10472619;28;20221;-66
2021/11/25 17:55:15;;;;;;;9.43;6.57;;;17.40;55.70;;;;;;10459387;28;20238;-66
2021/11/25 18:00:38;;;;;;;10.57;6.33;;;17.40;55.60;;;;;;10472755;28;20228;-66
2021/11/25 18:06:02;;;;;;;7.70;6.47;;;17.40;55.60;;;;;;10490685;28;20196;-66
2021/11/25 18:11:25;;;;;;;9.15;7.75;;;17.30;55.70;;;;;;10488343;28;20770;-65
2021/11/25 18:16:47;;;;;;;8.97;6.43;;;17.90;53.80;;;;;;10489348;28;20295;-64
2021/11/25 18:22:11;;;;;;;7.07;6.30;;;17.50;55.20;;;;;;10486627;28;20213;-65
2021/11/25 18:27:33;;;;;;;7.43;6.27;;;17.40;55.80;;;;;;10488829;28;20197;-65
2021/11/25 18:32:55;;;;;;;8.87;7.23;;;17.30;56.00;;;;;;10489618;28;20224;-65
2021/11/25 18:38:19;;;;;;;10.97;6.00;;;17.30;56.10;;;;;;10489850;28;20211;-65
2021/11/25 18:43:41;;;;;;;9.43;6.37;;;17.30;56.10;;;;;;10488055;28;20660;-63
2021/11/25 18:49:06;;;;;;;8.33;6.80;;;17.30;55.90;;;;;;10486843;28;20250;-65
2021/11/25 18:54:29;;;;;;;7.97;6.10;;;17.40;55.50;;;;;;10488842;28;20216;-65
2021/11/25 18:59:52;;;;;;;8.10;6.43;;;17.30;55.40;;;;;;10491066;28;20216;-65
2021/11/25 19:05:14;;;;;;;9.43;7.50;;;17.30;55.50;;;;;;10493278;28;20211;-65
2021/11/25 19:10:38;;;;;;;10.50;8.00;;;17.30;55.50;;;;;;10494295;28;20678;-65
2021/11/25 19:16:00;;;;;;;11.33;8.30;;;17.30;55.60;;;;;;10493459;28;20228;-65
2021/11/25 19:21:23;;;;;;;10.20;7.97;;;17.30;55.70;;;;;;10485291;28;20231;-65
2021/11/25 19:26:47;;;;;;;9.73;7.33;;;17.30;55.70;;;;;;10493878;28;20238;-65
2021/11/25 19:32:09;;;;;;;7.87;6.47;;;17.30;55.80;;;;;;10493889;28;20216;-64
2021/11/25 19:37:32;;;;;;;10.07;7.03;;;17.20;55.90;;;;;;10493750;28;20201;-65
2021/11/25 19:42:55;;;;;;;9.07;7.40;;;17.20;55.80;;;;;;10493370;28;20216;-65
2021/11/25 19:48:17;;;;;;;9.77;7.50;;;17.20;55.40;;;;;;10461775;28;20196;-65
2021/11/25 19:53:44;;;;;;;9.83;7.77;;;17.30;54.70;;;;;;10451534;28;20219;-65
2021/11/25 19:59:07;;;;;;;11.13;8.00;;;17.40;54.30;;;;;;10450997;28;20592;-65
2021/11/25 20:04:29;;;;;;;9.23;7.10;;;17.40;54.30;;;;;;10468148;28;20196;-65
2021/11/25 20:09:51;;;;;;;8.50;7.00;;;17.40;54.70;;;;;;10451445;28;20213;-65
2021/11/25 20:15:18;;;;;;;7.93;6.70;;;17.40;54.80;;;;;;10477045;28;20220;-64
2021/11/25 20:20:40;;;;;;;9.50;6.43;;;17.40;55.00;;;;;;10482386;28;20208;-65
2021/11/25 20:26:02;;;;;;;9.60;6.37;;;17.40;54.90;;;;;;10489327;28;20203;-65
2021/11/25 20:31:26;;;;;;;8.17;5.87;;;17.30;55.00;;;;;;10459372;28;20205;-64
2021/11/25 20:36:48;;;;;;;8.17;5.83;;;17.30;55.10;;;;;;10459224;28;20225;-64
2021/11/25 20:42:10;;;;;;;7.57;5.83;;;17.30;55.20;;;;;;10490413;28;20695;-65
2021/11/25 20:47:34;;;;;;;8.73;5.83;;;17.30;55.30;;;;;;10474851;28;20197;-65
2021/11/25 20:52:57;;;;;;;7.87;6.13;;;17.30;55.40;;;;;;10458900;28;20220;-65
2021/11/25 20:58:19;;;;;;;8.00;6.70;;;17.30;55.10;;;;;;10475236;28;20196;-65
2021/11/25 21:03:44;;;;;;;7.83;6.50;;;17.40;54.60;;;;;;10499344;28;20203;-65
2021/11/25 21:09:07;;;;;;;7.47;5.70;;;17.50;54.00;;;;;;10476687;28;20217;-65
2021/11/25 21:14:29;;;;;;;10.37;6.83;;;17.60;53.70;;;;;;10486694;28;20239;-65
2021/11/25 21:19:53;;;;;;;9.00;6.80;;;17.70;53.00;;;;;;10495296;28;20216;-65
2021/11/25 21:25:16;;;;;;;7.40;5.53;;;17.70;52.80;;;;;;10482192;28;20196;-65
2021/11/25 21:30:38;;;;;;;7.43;5.93;;;17.70;52.90;;;;;;10473415;28;20262;-65
2021/11/25 21:36:01;;;;;;;8.43;5.73;;;17.60;53.10;;;;;;10477190;28;20223;-65
2021/11/25 21:41:24;;;;;;;7.73;5.70;;;17.60;53.50;;;;;;10481221;28;20225;-65
2021/11/25 21:46:46;;;;;;;7.20;5.53;;;17.50;53.50;;;;;;10480240;28;20201;-63
2021/11/25 21:52:09;;;;;;;8.73;5.13;;;17.50;53.70;;;;;;10465097;28;20209;-65
2021/11/25 21:57:31;;;;;;;7.33;4.90;;;17.40;53.90;;;;;;10467926;28;20216;-65
2021/11/25 22:02:54;;;;;;;7.77;4.50;;;17.40;54.00;;;;;;10456924;28;20228;-65
2021/11/25 22:08:18;;;;;;;7.07;4.57;;;17.40;54.20;;;;;;10454824;28;20197;-64
2021/11/25 22:13:40;;;;;;;7.77;4.93;;;17.30;54.30;;;;;;10456384;28;20588;-65
2021/11/25 22:19:04;;;;;;;6.53;5.10;;;17.30;54.40;;;;;;10459080;28;20216;-65
2021/11/25 22:30:09;;;;;;;8.07;4.90;;;17.20;54.40;;;;;;10455986;28;20209;-65
2021/11/25 22:35:31;;;;;;;7.63;5.07;;;17.20;54.40;;;;;;10462168;28;20221;-65
2021/11/25 22:40:55;;;;;;;7.60;5.13;;;17.20;54.20;;;;;;10454144;28;20225;-65
2021/11/25 22:46:17;;;;;;;7.00;5.03;;;17.20;53.80;;;;;;10467352;28;20204;-65
2021/11/25 22:51:39;;;;;;;7.37;5.07;;;17.30;53.60;;;;;;10454595;28;20213;-65
2021/11/25 22:57:03;;;;;;;7.57;5.50;;;17.30;53.60;;;;;;10471254;28;20216;-65
2021/11/25 23:02:25;;;;;;;6.03;4.70;;;17.30;53.50;;;;;;10495103;28;20212;-65
2021/11/25 23:07:47;;;;;;;6.93;4.93;;;17.30;53.50;;;;;;10492020;28;20188;-65
2021/11/25 23:13:18;;;;;;;8.13;5.27;;;17.30;53.70;;;;;;10528760;28;20557;-65
2021/11/25 23:18:40;;;;;;;6.53;4.73;;;17.20;53.70;;;;;;10527358;28;20234;-65
2021/11/25 23:24:04;;;;;;;6.67;4.63;;;17.20;53.80;;;;;;10527696;28;20341;-65
2021/11/25 23:29:27;;;;;;;7.50;4.50;;;17.20;53.90;;;;;;10526990;28;20212;-65
2021/11/25 23:34:49;;;;;;;7.43;4.90;;;17.20;53.90;;;;;;10526794;28;20295;-65
2021/11/25 23:40:13;;;;;;;6.07;4.70;;;17.10;53.80;;;;;;10515548;22;20229;-66
2021/11/25 23:45:37;;;;;;;6.43;4.47;;;17.10;53.90;;;;;;10438500;28;20699;-65
2021/11/25 23:51:08;;;;;;;6.13;4.77;;;17.10;53.90;;;;;;10443238;28;20298;-66
2021/11/25 23:56:30;;;;;;;6.97;5.20;;;17.20;53.70;;;;;;10444322;28;20208;-65
